Latest Weather Observations for Cummins Airport

IDS60801

Issued at 10:05 am CDT Sunday 23 November 2014 (issued every 30 minutes, with the page automatically refreshed every 10 minutes)

About weather observations | Map of weather stations | Latest weather observations for SA | Other Formats
Station Details ID: 018217 Name: CUMMINS AERO Lat: -34.25 Lon: 135.71 Height: 60.11 m
Data from the previous 72 hours. | See also: Recent months at Cummins Airport
Date/Time
CDT
Temp
°C
App
Temp
°C
Dew
Point
Rel
Hum
%
Delta-T
°C
Wind Press
QNH
hPa
Press
MSL
hPa
Rain
since 9 am
mm
Dir
 
Spd
km/h
Gust
km/h
Spd
kts
Gust
kts
23/10:00am 21.0 20.5 11.9 56 5.1 NNE 6 11 3 6 1013.1 1012.9 0.0
23/09:30am 20.1 19.9 13.1 64 4.0 SSE 6 11 3 6 1012.9 1012.7 0.0
23/09:00am 19.2 18.8 12.9 67 3.6 ESE 7 13 4 7 1012.5 1012.3 0.0
23/08:30am 17.5 17.8 14.4 82 1.8 S 6 9 3 5 1012.2 1012.0 0.0
23/08:00am 15.2 16.4 13.9 92 0.7 CALM 0 0 0 0 1012.4 1012.2 0.0
23/07:30am 13.2 14.0 12.7 97 0.3 CALM 0 0 0 0 1012.1 1011.9 0.0
23/07:00am 11.6 12.0 11.1 97 0.3 CALM 0 0 0 0 1012.0 1011.8 0.0
23/06:30am 10.4 10.5 10.1 98 0.2 CALM 0 0 0 0 1011.6 1011.4 0.0
23/06:00am 10.2 9.0 9.7 97 0.3 E 6 7 3 4 1011.3 1011.1 0.0
23/05:30am 10.8 9.8 10.3 97 0.3 E 6 7 3 4 1011.2 1011.0 0.0
23/05:00am 10.1 8.7 9.6 97 0.3 ESE 7 7 4 4 1011.3 1011.1 0.0
23/04:30am 10.1 8.9 9.5 96 0.3 ENE 6 6 3 3 1011.7 1011.5 0.0
23/04:00am 10.9 10.3 10.3 96 0.3 N 4 7 2 4 1011.9 1011.7 0.0
23/03:30am 10.7 9.6 10.1 96 0.3 E 6 7 3 4 1012.0 1011.8 0.0
23/03:00am 11.1 11.3 10.5 96 0.3 CALM 0 0 0 0 1012.2 1012.0 0.0
23/02:30am 11.3 11.5 10.5 95 0.4 CALM 0 0 0 0 1012.7 1012.5 0.0
23/02:00am 11.9 12.3 11.1 95 0.4 CALM 0 0 0 0 1012.9 1012.7 0.0
23/01:30am 11.8 10.8 10.9 94 0.5 NNE 7 9 4 5 1013.0 1012.8 0.0
23/01:00am 12.2 11.7 10.9 92 0.7 NE 4 6 2 3 1013.1 1012.9 0.0
23/12:30am 12.4 12.8 11.1 92 0.7 CALM 0 0 0 0 1013.5 1013.3 0.0
23/12:00am 13.5 13.3 11.9 90 0.9 S 4 7 2 4 1013.7 1013.5 0.0
 
Date/Time
CDT
Temp
°C
App
Temp
°C
Dew
Point
Rel
Hum
%
Delta-T
°C
Wind Press
QNH
hPa
Press
MSL
hPa
Rain
since 9 am
mm
Dir
 
Spd
km/h
Gust
km/h
Spd
kts
Gust
kts
22/11:30pm 14.1 13.7 12.3 89 1.0 SE 6 7 3 4 1013.6 1013.4 0.0
22/11:00pm 14.5 14.0 12.2 86 1.3 SE 6 7 3 4 1013.7 1013.5 0.0
22/10:30pm 15.2 14.6 12.3 83 1.6 ESE 7 9 4 5 1013.8 1013.6 0.0
22/10:00pm 15.5 13.0 12.4 82 1.7 SSW 17 20 9 11 1013.2 1013.0 0.0
22/09:30pm 15.9 14.2 12.5 80 1.9 S 13 17 7 9 1012.7 1012.5 0.0
22/09:00pm 16.3 14.2 12.3 77 2.2 SSW 15 20 8 11 1012.5 1012.3 0.0
22/08:30pm 17.2 14.3 12.3 73 2.7 SSW 19 24 10 13 1012.0 1011.8 0.0
22/08:00pm 18.0 14.2 12.5 70 3.1 SSW 24 30 13 16 1011.5 1011.3 0.0
22/07:30pm 19.0 14.2 11.8 63 4.0 SW 28 35 15 19 1011.1 1010.9 0.0
22/07:00pm 20.3 14.2 9.8 51 5.6 SSW 32 37 17 20 1010.2 1010.1 0.0
22/06:30pm 21.4 15.3 9.6 47 6.4 SSW 32 39 17 21 1009.6 1009.5 0.0
22/06:00pm 22.9 17.7 10.3 45 6.9 SSW 28 41 15 22 1009.3 1009.2 0.0
22/05:30pm 23.9 19.7 11.2 44 7.1 WSW 24 35 13 19 1008.9 1008.8 0.0
22/05:00pm 24.3 18.4 9.1 38 8.2 WSW 30 43 16 23 1008.6 1008.5 0.0
22/04:30pm 24.9 19.0 9.2 37 8.6 WSW 30 39 16 21 1008.4 1008.3 0.0
22/04:00pm 25.6 20.1 9.0 35 9.0 WSW 28 41 15 22 1008.2 1008.1 0.0
22/03:30pm 26.5 21.4 10.6 37 9.0 WSW 28 41 15 22 1008.2 1008.1 0.0
22/03:00pm 26.3 20.8 10.5 37 8.9 W 30 39 16 21 1008.1 1008.0 0.0
22/02:30pm 26.2 20.8 9.5 35 9.2 W 28 39 15 21 1008.1 1008.0 0.0
22/02:00pm 26.4 20.7 6.9 29 10.3 W 26 33 14 18 1008.2 1008.1 0.0
22/01:30pm 25.8 20.8 7.9 32 9.6 W 24 32 13 17 1008.1 1008.0 0.0
22/01:00pm 25.3 21.3 10.4 39 8.3 W 22 30 12 16 1008.1 1008.0 0.0
22/12:30pm 26.0 23.4 13.8 47 7.2 W 20 24 11 13 1008.0 1007.9 0.0
22/12:00pm 23.5 21.5 15.5 60 4.8 WSW 20 24 11 13 1007.7 1007.6 0.0
22/11:30am 22.8 21.2 14.9 61 4.7 W 17 26 9 14 1007.8 1007.7 0.0
22/11:00am 22.6 21.5 17.3 72 3.3 WNW 19 22 10 12 1007.9 1007.8 0.0
22/10:30am 22.7 21.2 16.7 69 3.7 W 20 26 11 14 1007.3 1007.2 0.0
22/10:00am 22.8 22.6 17.7 73 3.2 WNW 15 24 8 13 1007.4 1007.3 0.0
22/09:30am 21.8 24.1 17.6 77 2.6 NNW 2 11 1 6 1007.1 1007.0 0.0
22/09:00am 20.2 22.7 17.2 83 1.8 CALM 0 0 0 0 1007.3 1007.2 7.8
22/08:30am 18.4 19.5 17.1 92 0.8 NE 7 11 4 6 1007.4 1007.3 7.8
22/08:00am 17.9 18.6 16.1 89 1.1 SSE 7 11 4 6 1006.6 1006.5 6.8
22/07:30am 16.5 15.0 15.2 92 0.8 E 17 20 9 11 1006.3 1006.2 6.8
22/07:00am 16.2 15.6 14.6 90 0.9 SE 11 15 6 8 1006.2 1006.1 5.2
22/06:30am 16.5 15.4 14.3 87 1.3 SSE 13 20 7 11 1006.8 1006.7 2.6
22/06:00am 16.1 14.5 13.8 86 1.3 SSE 15 22 8 12 1006.7 1006.6 2.6
22/05:49am 16.2 15.1 13.1 82 1.7 SE 11 20 6 11 1006.0 1005.9 2.6
22/05:39am 16.9 13.1 12.4 75 2.5 W 24 30 13 16 1008.2 1008.1 0.2
22/05:30am 16.1 15.0 10.8 71 2.8 ENE 7 11 4 6 1005.8 1005.7 0.2
22/05:00am 16.9 14.0 9.8 63 3.7 SW 15 19 8 10 1006.2 1006.1 0.2
22/04:30am 19.0 17.1 4.7 39 6.9 SE 4 9 2 5 1005.1 1005.0 0.0
22/04:00am 19.0 16.5 3.6 36 7.3 ESE 6 17 3 9 1005.2 1005.1 0.0
22/03:30am 20.7 17.8 2.5 30 8.5 NNE 7 11 4 6 1005.1 1005.0 0.0
22/03:00am 21.5 17.0 4.1 32 8.5 N 17 22 9 12 1005.5 1005.4 0.0
22/02:30am 22.8 19.4 1.8 25 9.9 W 9 17 5 9 1005.3 1005.2 0.0
22/02:00am 22.5 19.1 2.1 26 9.6 NW 9 17 5 9 1004.7 1004.6 0.0
22/01:30am 22.8 17.6 2.3 26 9.7 NNE 19 22 10 12 1004.7 1004.6 0.0
22/01:00am 22.6 17.2 2.7 27 9.5 NE 20 24 11 13 1004.9 1004.8 0.0
22/12:30am 22.9 17.8 2.9 27 9.6 NE 19 28 10 15 1005.2 1005.1 0.0
22/12:00am 22.3 17.3 3.4 29 9.1 NE 19 26 10 14 1005.8 1005.7 0.0
 
Date/Time
CDT
Temp
°C
App
Temp
°C
Dew
Point
Rel
Hum
%
Delta-T
°C
Wind Press
QNH
hPa
Press
MSL
hPa
Rain
since 9 am
mm
Dir
 
Spd
km/h
Gust
km/h
Spd
kts
Gust
kts
21/11:30pm 22.4 17.9 4.0 30 9.0 NE 17 22 9 12 1006.4 1006.3 0.0
21/11:00pm 22.4 17.6 4.5 31 8.8 NE 19 26 10 14 1006.5 1006.4 0.0
21/10:30pm 22.0 18.1 5.4 34 8.3 NE 15 20 8 11 1007.3 1007.2 0.0
21/10:00pm 21.2 17.5 6.3 38 7.5 NE 15 20 8 11 1007.6 1007.5 0.0
21/09:30pm 22.1 17.9 5.9 35 8.2 ENE 17 22 9 12 1007.7 1007.6 0.0
21/09:00pm 22.1 17.6 7.1 38 7.8 ENE 20 28 11 15 1007.7 1007.6 0.0
21/08:30pm 22.8 17.5 6.6 35 8.3 ENE 24 35 13 19 1007.5 1007.4 0.0
21/08:00pm 23.9 18.5 6.2 32 9.1 ENE 24 39 13 21 1007.5 1007.4 0.0
21/07:30pm 25.4 19.9 6.1 29 10.0 E 24 39 13 21 1007.4 1007.3 0.0
21/07:00pm 26.7 21.5 7.2 29 10.4 E 24 39 13 21 1007.2 1007.1 0.0
21/06:30pm 28.0 22.1 7.3 27 11.1 E 28 35 15 19 1007.0 1006.9 0.0
21/06:00pm 30.0 25.2 7.2 24 12.4 E 22 28 12 15 1007.1 1007.0 0.0
21/05:30pm 31.3 27.9 5.7 20 13.6 NNW 13 26 7 14 1007.2 1007.1 0.0
21/05:00pm 31.5 28.2 6.5 21 13.5 WNW 13 24 7 13 1007.5 1007.4 0.0
21/04:30pm 31.3 28.2 7.1 22 13.2 NW 13 22 7 12 1007.8 1007.7 0.0
21/04:00pm 30.7 27.1 6.6 22 13.0 WNW 15 20 8 11 1008.3 1008.2 0.0
21/03:30pm 30.8 28.7 6.6 22 13.0 ESE 7 15 4 8 1008.8 1008.7 0.0
21/03:00pm 29.5 26.9 6.2 23 12.4 W 9 20 5 11 1009.3 1009.2 0.0
21/02:30pm 29.0 25.7 6.4 24 12.0 W 13 20 7 11 1009.6 1009.5 0.0
21/02:00pm 28.3 24.6 6.4 25 11.6 NNW 15 30 8 16 1010.0 1009.9 0.0
21/01:30pm 28.1 25.4 5.6 24 11.7 ENE 9 17 5 9 1010.4 1010.3 0.0
21/01:00pm 27.0 23.8 5.3 25 11.2 NE 11 20 6 11 1011.1 1010.9 0.0
21/12:30pm 26.7 23.4 6.2 27 10.7 N 13 19 7 10 1011.4 1011.2 0.0
21/12:00pm 25.4 22.0 6.1 29 10.0 NNW 13 19 7 10 1011.9 1011.7 0.0
21/11:30am 23.6 20.0 6.8 34 8.7 N 15 22 8 12 1012.3 1012.1 0.0
21/11:00am 22.9 19.8 7.4 37 8.1 NNW 13 20 7 11 1012.5 1012.3 0.0
21/10:30am 21.0 17.5 7.3 41 7.0 NNW 15 24 8 13 1012.8 1012.6 0.0
21/10:00am 20.2 17.0 8.5 47 6.1 NNW 15 22 8 12 1013.0 1012.8 0.0
21/09:30am 18.9 15.9 9.4 54 5.0 N 15 19 8 10 1013.1 1012.9 0.0
21/09:00am 17.7 15.4 10.6 63 3.8 N 13 20 7 11 1013.1 1012.9 0.2
21/08:30am 16.2 14.4 10.7 70 2.9 N 11 15 6 8 1013.0 1012.8 0.2
21/08:00am 14.6 12.8 10.8 78 2.0 NNE 11 13 6 7 1013.0 1012.8 0.2
21/07:30am 11.5 9.7 9.6 88 1.0 NNE 9 11 5 6 1012.8 1012.6 0.2
21/07:00am 9.2 7.1 8.1 93 0.5 NNE 9 11 5 6 1012.6 1012.4 0.2
21/06:30am 8.0 5.3 7.2 95 0.4 NNE 11 13 6 7 1012.4 1012.2 0.2
21/06:00am 7.5 5.1 6.8 95 0.3 NNE 9 11 5 6 1012.1 1011.9 0.2
21/05:30am 7.0 4.4 5.9 93 0.5 NNE 9 13 5 7 1012.2 1012.0 0.2
21/05:00am 7.1 4.8 5.7 91 0.6 NNE 7 9 4 5 1012.1 1011.9 0.2
21/04:30am 7.0 4.7 5.5 90 0.7 NNE 7 9 4 5 1012.2 1012.0 0.2
21/04:00am 7.0 4.8 5.5 90 0.7 NE 6 13 3 7 1011.9 1011.7 0.2
21/03:30am 8.0 6.8 6.5 90 0.7 ENE 2 6 1 3 1012.5 1012.3 0.2
21/03:00am 8.2 6.3 6.5 89 0.8 ENE 6 7 3 4 1012.5 1012.3 0.2
21/02:30am 8.9 8.2 7.0 88 0.9 CALM 0 0 0 0 1012.9 1012.7 0.2
21/02:00am 9.7 9.1 7.6 87 1.0 CALM 0 0 0 0 1013.1 1012.9 0.2
21/01:30am 10.7 9.8 7.9 83 1.4 NW 2 6 1 3 1013.4 1013.2 0.2
21/01:00am 12.9 11.7 9.7 81 1.6 WNW 6 7 3 4 1013.7 1013.5 0.2
21/12:30am 12.9 11.7 10.3 84 1.3 WNW 7 9 4 5 1013.8 1013.6 0.2
21/12:00am 13.0 11.2 9.6 80 1.7 W 9 11 5 6 1014.0 1013.8 0.2
 
Date/Time
CDT
Temp
°C
App
Temp
°C
Dew
Point
Rel
Hum
%
Delta-T
°C
Wind Press
QNH
hPa
Press
MSL
hPa
Rain
since 9 am
mm
Dir
 
Spd
km/h
Gust
km/h
Spd
kts
Gust
kts
20/11:30pm 12.7 10.9 9.5 81 1.6 W 9 11 5 6 1013.8 1013.6 0.2
20/11:00pm 12.8 11.5 10.0 83 1.4 SW 7 9 4 5 1013.3 1013.1 0.2
20/10:30pm 12.3 10.5 9.5 83 1.4 SW 9 11 5 6 1013.1 1012.9 0.2
20/10:00pm 13.7 11.9 11.0 84 1.4 SW 11 13 6 7 1013.1 1012.9 0.2
20/09:30pm 14.7 13.1 11.5 81 1.7 SSW 11 15 6 8 1012.7 1012.5 0.2
20/09:00pm 15.2 12.9 11.6 79 1.9 SW 15 20 8 11 1012.5 1012.3 0.2
20/08:30pm 16.6 13.7 12.2 75 2.4 SSW 19 22 10 12 1012.2 1012.0 0.2
20/08:00pm 17.1 14.0 12.2 73 2.7 WSW 20 24 11 13 1011.8 1011.6 0.2
20/07:30pm 17.7 14.8 12.8 73 2.7 WSW 20 26 11 14 1011.4 1011.2 0.2
20/07:00pm 17.8 15.4 13.9 78 2.2 SW 19 24 10 13 1011.0 1010.8 0.2
20/06:30pm 17.6 15.2 14.3 81 1.9 SW 20 28 11 15 1010.7 1010.6 0.2
20/06:00pm 18.3 15.4 14.0 76 2.5 WSW 22 32 12 17 1010.5 1010.4 0.2
20/05:30pm 18.8 15.6 14.3 75 2.6 WSW 24 32 13 17 1010.1 1010.0 0.2
20/05:00pm 18.5 15.3 15.2 81 1.9 WSW 26 33 14 18 1009.7 1009.6 0.2
20/04:30pm 20.0 15.8 13.5 66 3.7 W 28 35 15 19 1009.7 1009.6 0.2
20/04:00pm 20.8 15.6 13.3 62 4.3 W 33 43 18 23 1009.8 1009.7 0.2
20/03:30pm 21.5 17.0 13.7 61 4.5 W 30 43 16 23 1009.6 1009.5 0.2
20/03:00pm 22.7 17.2 13.7 56 5.3 W 35 46 19 25 1009.2 1009.1 0.2
20/02:30pm 23.7 19.2 13.8 53 5.8 W 30 43 16 23 1009.1 1009.0 0.2
20/02:00pm 22.5 18.9 13.0 55 5.5 WSW 24 35 13 19 1009.2 1009.1 0.2
20/01:30pm 21.5 17.6 13.4 60 4.7 WSW 26 35 14 19 1009.9 1009.8 0.2
20/01:00pm 21.9 17.9 14.0 61 4.6 W 28 37 15 20 1009.6 1009.5 0.2
20/12:30pm 20.7 16.6 15.0 70 3.4 W 30 37 16 20 1009.7 1009.6 0.2
20/12:00pm 21.2 17.1 14.8 67 3.8 WNW 30 39 16 21 1010.0 1009.9 0.2
20/11:30am 20.6 15.9 14.9 70 3.4 WNW 33 46 18 25 1010.2 1010.1 0.2
20/11:00am 20.9 16.8 15.9 73 3.0 WNW 32 43 17 23 1009.5 1009.4 0.2
20/10:30am 20.3 17.0 17.1 82 2.0 WNW 30 39 16 21 1009.2 1009.1 0.2

Other Formats:

Comma delimited format used in spreadsheet applications
http://www.bom.gov.au/fwo/IDS60801/IDS60801.95663.axf

JavaScript Object Notation format (JSON) in row-major order
http://www.bom.gov.au/fwo/IDS60801/IDS60801.95663.json